createdAt,value
2022-08-01T00:00:50.246Z,94155.13
2022-08-01T00:03:17.866Z,94152.69
2022-08-01T00:05:46.352Z,94158.75
2022-08-01T00:08:13.944Z,94156.81
2022-08-01T00:10:41.545Z,94152.19
2022-08-01T00:13:09.145Z,94157.13
2022-08-01T00:15:38.422Z,94154.41
2022-08-01T00:18:07.511Z,94161.72
2022-08-01T00:20:35.236Z,94155.47
2022-08-01T00:23:04.248Z,94166.38
2022-08-01T00:25:33.663Z,94162.81
2022-08-01T00:28:02.132Z,94167.47
2022-08-01T00:30:31.991Z,94169.38
2022-08-01T00:32:59.672Z,94161.22
2022-08-01T00:35:28.765Z,94159.28
2022-08-01T00:37:56.383Z,94159.28
2022-08-01T00:40:24.116Z,94170.50
2022-08-01T00:42:51.737Z,94167.78
2022-08-01T00:45:19.318Z,94168.88
2022-08-01T00:47:46.928Z,94157.44
2022-08-01T00:50:14.597Z,94168.34
2022-08-01T00:52:43.849Z,94168.06
2022-08-01T00:55:19.200Z,94168.06
2022-08-01T00:58:03.542Z,94154.41
2022-08-01T01:00:53.538Z,94162.59
2022-08-01T01:03:37.923Z,94161.78
2022-08-01T01:06:17.197Z,94159.06
2022-08-01T01:08:49.511Z,94163.69
2022-08-01T01:11:21.677Z,94162.06
2022-08-01T01:13:52.297Z,94165.63
2022-08-01T01:16:20.623Z,94164.00
2022-08-01T01:18:49.289Z,94166.75
2022-08-01T01:21:37.485Z,94165.09
2022-08-01T01:24:09.793Z,94167.31
2022-08-01T01:26:42.328Z,94170.34
2022-08-01T01:29:15.954Z,94175.47
2022-08-01T01:31:46.357Z,94170.34
2022-08-01T01:34:15.201Z,94164.06
2022-08-01T01:36:42.777Z,94169.00
2022-08-01T01:39:10.390Z,94169.00
2022-08-01T01:41:38.666Z,94167.09
2022-08-01T01:44:06.609Z,94166.78
2022-08-01T01:46:35.568Z,94167.59
2022-08-01T01:49:03.251Z,94166.00
2022-08-01T01:51:31.732Z,94164.06
2022-08-01T01:53:59.861Z,94163.53
2022-08-01T01:56:27.486Z,94170.63
2022-08-01T01:58:57.389Z,94165.44
2022-08-01T02:02:05.130Z,94170.91
2022-08-01T02:04:14.985Z,94170.09
2022-08-01T02:06:43.108Z,94168.47
2022-08-01T02:09:11.219Z,94170.38
2022-08-01T02:11:39.155Z,94173.94
2022-08-01T02:14:28.033Z,94177.78
2022-08-01T02:16:55.652Z,94171.50
2022-08-01T02:19:24.614Z,94167.97
2022-08-01T02:21:53.897Z,94174.22
2022-08-01T02:24:30.564Z,94182.41
2022-08-01T02:26:59.514Z,94174.53
2022-08-01T02:29:29.749Z,94177.25
2022-08-01T02:31:57.371Z,94179.97
2022-08-01T02:34:26.514Z,94195.53
2022-08-01T02:36:54.124Z,94184.59
2022-08-01T02:39:21.841Z,94184.59
2022-08-01T02:41:50.264Z,94185.72
2022-08-01T02:44:20.746Z,94189.28
2022-08-01T02:46:51.488Z,94187.66
2022-08-01T02:49:20.287Z,94194.72
2022-08-01T02:51:49.471Z,94186.53
2022-08-01T02:54:17.533Z,94188.72
2022-08-01T02:56:45.150Z,94193.38
2022-08-01T02:59:16.045Z,94199.94
2022-08-01T03:01:47.521Z,94185.47
2022-08-01T03:04:15.360Z,94199.94
2022-08-01T03:06:45.294Z,94198.00
2022-08-01T03:09:14.306Z,94187.41
2022-08-01T03:11:44.616Z,94192.03
2022-08-01T03:14:12.421Z,94192.03
2022-08-01T03:16:40.813Z,94190.41
2022-08-01T03:19:08.565Z,94192.03
2022-08-01T03:21:36.227Z,94198.59
2022-08-01T03:24:04.081Z,94200.22
2022-08-01T03:26:34.657Z,94195.88
2022-08-01T03:29:04.433Z,94198.91
2022-08-01T03:31:32.345Z,94203.53
2022-08-01T03:34:05.378Z,94204.34
2022-08-01T03:36:34.520Z,94205.16
2022-08-01T03:39:03.042Z,94212.53
2022-08-01T03:41:34.516Z,94204.34
2022-08-01T03:44:03.685Z,94213.34
2022-08-01T03:46:34.711Z,94208.16
2022-08-01T03:49:03.359Z,94208.97
2022-08-01T03:51:31.016Z,94205.44
2022-08-01T03:53:58.618Z,94202.69
2022-08-01T03:56:26.309Z,94212.81
2022-08-01T03:58:55.276Z,94212.00
2022-08-01T04:01:22.939Z,94217.16
2022-08-01T04:03:50.768Z,94217.16
2022-08-01T04:06:18.447Z,94222.91
2022-08-01T04:08:56.341Z,94215.81
2022-08-01T04:11:25.770Z,94216.66
2022-08-01T04:13:55.336Z,94222.09
2022-08-01T04:16:23.330Z,94223.22
2022-08-01T04:18:50.969Z,94226.72
2022-08-01T04:21:20.053Z,94230.56
2022-08-01T04:23:47.663Z,94236.84
2022-08-01T04:26:19.209Z,94233.28
2022-08-01T04:28:46.851Z,94230.56
2022-08-01T04:31:15.765Z,94227.03
2022-08-01T04:33:46.350Z,94234.13
2022-08-01T04:36:14.778Z,94234.13
2022-08-01T04:38:42.401Z,94227.84
2022-08-01T04:41:10.063Z,94231.66
2022-08-01T04:43:37.953Z,94240.66
2022-08-01T04:46:05.675Z,94229.75
2022-08-01T04:48:36.136Z,94234.63
2022-08-01T04:51:03.757Z,94235.44
2022-08-01T04:53:33.282Z,94236.78
2022-08-01T04:56:01.570Z,94232.94
2022-08-01T04:58:29.173Z,94239.22
2022-08-01T05:00:56.887Z,94234.56
2022-08-01T05:03:24.534Z,94235.09
2022-08-01T05:05:53.507Z,94237.81
2022-08-01T05:08:21.466Z,94236.75
2022-08-01T05:10:49.112Z,94246.00
2022-08-01T05:13:16.745Z,94243.56
2022-08-01T05:15:44.497Z,94246.59
2022-08-01T05:18:12.199Z,94248.78
2022-08-01T05:20:39.802Z,94248.28
2022-08-01T05:23:11.089Z,94248.84
2022-08-01T05:25:58.354Z,94252.69
2022-08-01T05:28:26.710Z,94258.41
2022-08-01T05:30:55.699Z,94258.69
2022-08-01T05:33:23.427Z,94256.78
2022-08-01T05:35:51.249Z,94262.53
2022-08-01T05:38:20.205Z,94260.91
2022-08-01T05:40:47.913Z,94258.16
2022-08-01T05:43:15.534Z,94272.63
2022-08-01T05:45:43.404Z,94266.66
2022-08-01T05:48:11.024Z,94260.09
2022-08-01T05:50:38.673Z,94260.09
2022-08-01T05:53:06.333Z,94262.81
2022-08-01T05:55:35.425Z,94271.28
2022-08-01T05:58:03.294Z,94269.38
2022-08-01T06:00:30.892Z,94265.81
2022-08-01T06:02:58.501Z,94269.38
2022-08-01T06:05:26.126Z,94271.28
2022-08-01T06:07:53.737Z,94265.03
2022-08-01T06:10:21.476Z,94269.66
2022-08-01T06:12:50.414Z,94274.84
2022-08-01T06:15:18.062Z,94276.72
2022-08-01T06:17:45.708Z,94277.25
2022-08-01T06:20:13.507Z,94271.28
2022-08-01T06:22:41.105Z,94278.94
2022-08-01T06:25:10.429Z,94280.56
2022-08-01T06:27:38.029Z,94281.41
2022-08-01T06:30:08.416Z,94280.56
2022-08-01T06:32:36.034Z,94284.91
2022-08-01T06:35:03.710Z,94278.34
2022-08-01T06:37:31.900Z,94275.63
2022-08-01T06:40:02.378Z,94278.34
2022-08-01T06:42:29.992Z,94278.09
2022-08-01T06:44:57.720Z,94276.16
2022-08-01T06:47:26.687Z,94284.84
2022-08-01T06:49:54.384Z,94278.31
2022-08-01T06:52:22.081Z,94274.50
2022-08-01T06:54:49.698Z,94278.84
2022-08-01T06:57:17.306Z,94269.84
2022-08-01T06:59:54.525Z,94272.28
2022-08-01T07:02:22.452Z,94282.09
2022-08-01T07:04:51.448Z,94269.56
2022-08-01T07:07:19.078Z,94272.00
2022-08-01T07:09:46.725Z,94272.00
2022-08-01T07:12:14.319Z,94273.34
2022-08-01T07:14:41.972Z,94274.16
2022-08-01T07:17:09.710Z,94267.59
2022-08-01T07:19:38.636Z,94274.69
2022-08-01T07:22:07.855Z,94272.47
2022-08-01T07:24:35.776Z,94271.66
2022-08-01T07:27:23.000Z,94267.81
2022-08-01T07:29:51.083Z,94272.19
2022-08-01T07:32:18.706Z,94268.66
2022-08-01T07:34:46.716Z,94269.47
2022-08-01T07:37:15.678Z,94273.00
2022-08-01T07:39:43.293Z,94276.56
2022-08-01T07:42:11.262Z,94267.25
2022-08-01T07:44:39.073Z,94273.50
2022-08-01T07:47:07.016Z,94268.88
2022-08-01T07:49:39.652Z,94272.41
2022-08-01T07:52:08.356Z,94264.22
2022-08-01T07:54:37.525Z,94267.78
2022-08-01T07:57:05.476Z,94265.84
2022-08-01T07:59:33.157Z,94269.41
2022-08-01T08:02:01.001Z,94260.41
2022-08-01T08:04:28.965Z,94265.84
2022-08-01T08:06:56.590Z,94269.41
2022-08-01T08:09:24.239Z,94266.69
2022-08-01T08:11:53.228Z,94265.56
2022-08-01T08:14:23.649Z,94267.19
2022-08-01T08:17:00.326Z,94266.38
2022-08-01T08:19:38.497Z,94263.63
2022-08-01T08:22:06.738Z,94266.09
2022-08-01T08:24:34.673Z,94268.81
2022-08-01T08:27:03.836Z,94261.47
2022-08-01T08:29:33.248Z,94262.25
2022-08-01T08:32:00.864Z,94261.47
2022-08-01T08:34:29.093Z,94265.81
2022-08-01T08:36:57.008Z,94268.22
2022-08-01T08:39:24.746Z,94260.34
2022-08-01T08:41:52.505Z,94262.50
2022-08-01T08:44:22.040Z,94265.22
2022-08-01T08:46:51.897Z,94257.03
2022-08-01T08:49:21.209Z,94259.78
2022-08-01T08:51:49.967Z,94258.66
2022-08-01T08:54:17.913Z,94252.38
2022-08-01T08:56:45.536Z,94256.78
2022-08-01T08:59:14.315Z,94252.09
2022-08-01T09:01:43.411Z,94257.84
2022-08-01T09:04:11.212Z,94259.50
2022-08-01T09:06:39.166Z,94254.03
2022-08-01T09:09:06.790Z,94254.03
2022-08-01T09:11:34.917Z,94258.09
2022-08-01T09:14:07.201Z,94257.28
2022-08-01T09:16:35.137Z,94267.09
2022-08-01T09:19:16.394Z,94268.19
2022-08-01T09:22:02.425Z,94267.38
2022-08-01T09:24:30.892Z,94269.00
2022-08-01T09:26:58.752Z,94265.16
2022-08-01T09:29:37.926Z,94260.53
2022-08-01T09:32:13.910Z,94255.06
2022-08-01T09:34:47.219Z,94257.50
2022-08-01T09:37:15.121Z,94260.22
2022-08-01T09:39:44.510Z,94250.13
2022-08-01T09:42:28.807Z,94252.88
2022-08-01T09:44:57.177Z,94255.59
2022-08-01T09:47:25.617Z,94253.41
2022-08-01T09:49:59.567Z,94244.44
2022-08-01T09:52:29.310Z,94247.69
2022-08-01T09:54:57.925Z,94248.78
2022-08-01T09:57:25.738Z,94246.06
2022-08-01T09:59:59.086Z,94238.97
2022-08-01T10:02:30.561Z,94251.50
2022-08-01T10:05:03.659Z,94244.44
2022-08-01T10:07:43.070Z,94246.06
2022-08-01T10:10:13.004Z,94238.13
2022-08-01T10:12:45.275Z,94239.78
2022-08-01T10:15:14.300Z,94237.88
2022-08-01T10:17:50.501Z,94234.31
2022-08-01T10:20:28.995Z,94237.88
2022-08-01T10:23:00.514Z,94239.50
2022-08-01T10:25:42.850Z,94238.38
2022-08-01T10:28:15.178Z,94227.75
2022-08-01T10:30:45.963Z,94229.38
2022-08-01T10:33:15.261Z,94222.81
2022-08-01T10:36:03.593Z,94228.00
2022-08-01T10:38:37.263Z,94233.44
2022-08-01T10:41:05.991Z,94231.00
2022-08-01T10:43:35.584Z,94217.91
2022-08-01T10:46:04.058Z,94211.63
2022-08-01T10:48:33.438Z,94207.25
2022-08-01T10:51:18.140Z,94211.91
2022-08-01T10:53:50.396Z,94211.91
2022-08-01T10:56:22.642Z,94206.44
2022-08-01T10:59:16.541Z,94211.91
2022-08-01T11:02:32.139Z,94220.09
2022-08-01T11:05:23.906Z,94211.09
2022-08-01T11:07:58.057Z,94207.53
2022-08-01T11:10:27.379Z,94196.63
2022-08-01T11:12:55.005Z,94200.19
2022-08-01T11:15:29.653Z,94200.19
2022-08-01T11:18:00.673Z,94191.69
2022-08-01T11:20:30.996Z,94189.78
2022-08-01T11:23:18.931Z,94198.25
2022-08-01T11:26:10.447Z,94188.91
2022-08-01T11:28:40.589Z,94190.47
2022-08-01T11:31:28.859Z,94189.59
2022-08-01T11:33:59.316Z,94197.94
2022-08-01T11:36:57.762Z,94179.34
2022-08-01T11:39:20.436Z,94179.19
2022-08-01T11:41:48.910Z,94176.19
2022-08-01T11:44:18.937Z,94185.72
2022-08-01T11:46:49.950Z,94176.19
2022-08-01T11:49:30.250Z,94184.66
2022-08-01T11:51:59.613Z,94190.44
2022-08-01T11:54:35.062Z,94182.53
2022-08-01T11:57:05.525Z,94182.81
2022-08-01T11:59:41.156Z,94182.00
2022-08-01T12:02:30.594Z,94175.44
2022-08-01T12:04:59.135Z,94174.34
2022-08-01T12:07:28.180Z,94174.34
2022-08-01T12:10:02.341Z,94166.44
2022-08-01T12:12:30.379Z,94169.97
2022-08-01T12:14:58.790Z,94167.25
2022-08-01T12:17:31.238Z,94169.16
2022-08-01T12:19:58.865Z,94160.97
2022-08-01T12:22:26.809Z,94160.97
2022-08-01T12:24:54.554Z,94156.31
2022-08-01T12:27:27.555Z,94151.97
2022-08-01T12:29:55.476Z,94152.50
2022-08-01T12:32:27.754Z,94150.59
2022-08-01T12:35:04.162Z,94148.66
2022-08-01T12:37:32.733Z,94144.81
2022-08-01T12:40:03.581Z,94133.09
2022-08-01T12:42:32.752Z,94147.84
2022-08-01T12:45:00.345Z,94139.66
2022-08-01T12:47:28.033Z,94144.31
2022-08-01T12:49:55.658Z,94141.56
2022-08-01T12:52:30.010Z,94142.41
2022-08-01T12:55:25.159Z,94136.94
2022-08-01T12:58:21.302Z,94139.06
2022-08-01T13:00:50.138Z,94132.50
2022-08-01T13:03:21.681Z,94127.03
2022-08-01T13:05:50.172Z,94126.72
2022-08-01T13:08:18.746Z,94119.34
2022-08-01T13:10:46.682Z,94118.25
2022-08-01T13:13:22.178Z,94117.44
2022-08-01T13:16:04.945Z,94115.00
2022-08-01T13:18:35.639Z,94120.47
2022-08-01T13:21:13.519Z,94121.56
2022-08-01T13:24:03.102Z,94109.03
2022-08-01T13:26:48.067Z,94109.03
2022-08-01T13:29:18.483Z,94119.63
2022-08-01T13:31:51.172Z,94112.28
2022-08-01T13:34:18.780Z,94106.81
2022-08-01T13:36:49.855Z,94110.34
2022-08-01T13:39:38.100Z,94118.53
2022-08-01T13:42:19.061Z,94118.53
2022-08-01T13:44:50.400Z,94118.53
2022-08-01T13:47:18.076Z,94119.63
2022-08-01T13:49:48.216Z,94122.38
2022-08-01T13:52:16.187Z,94118.84
2022-08-01T13:54:45.389Z,94124.31
2022-08-01T13:57:20.290Z,94128.66
2022-08-01T13:59:49.248Z,94130.56
2022-08-01T14:02:17.012Z,94131.66
2022-08-01T14:04:44.617Z,94136.84
2022-08-01T14:07:14.918Z,94142.03
2022-08-01T14:09:57.776Z,94140.38
2022-08-01T14:12:30.603Z,94132.50
2022-08-01T14:15:00.008Z,94133.28
2022-08-01T14:17:28.443Z,94137.13
2022-08-01T14:19:57.404Z,94137.97
2022-08-01T14:22:25.023Z,94139.56
2022-08-01T14:24:52.589Z,94145.84
2022-08-01T14:27:26.045Z,94151.59
2022-08-01T14:29:54.777Z,94147.25
2022-08-01T14:32:31.442Z,94156.25
2022-08-01T14:34:59.033Z,94156.25
2022-08-01T14:37:29.256Z,94153.50
2022-08-01T14:39:58.955Z,94158.19
2022-08-01T14:42:26.634Z,94147.25
2022-08-01T14:44:54.251Z,94157.34
2022-08-01T14:47:22.613Z,94151.88
2022-08-01T14:49:51.839Z,94158.19
2022-08-01T14:52:20.445Z,94166.06
2022-08-01T14:54:48.324Z,94164.38
2022-08-01T14:57:19.069Z,94165.19
2022-08-01T14:59:46.810Z,94174.19
2022-08-01T15:02:17.874Z,94183.19
2022-08-01T15:04:45.501Z,94188.63
2022-08-01T15:07:14.512Z,94197.66
2022-08-01T15:09:42.249Z,94207.75
2022-08-01T15:12:10.755Z,94210.78
2022-08-01T15:14:50.369Z,94215.19
2022-08-01T15:17:18.515Z,94203.75
2022-08-01T15:19:46.282Z,94187.16
2022-08-01T15:22:15.678Z,94186.34
2022-08-01T15:24:43.783Z,94178.97
2022-08-01T15:27:11.591Z,94187.38
2022-08-01T15:29:39.173Z,94193.06
2022-08-01T15:32:07.906Z,94206.44
2022-08-01T15:34:35.869Z,94207.56
2022-08-01T15:37:03.703Z,94217.38
2022-08-01T15:39:33.938Z,94209.97
2022-08-01T15:42:01.856Z,94204.50
2022-08-01T15:44:29.774Z,94195.22
2022-08-01T15:46:57.385Z,94182.66
2022-08-01T15:49:25.095Z,94168.50
2022-08-01T15:51:52.738Z,94169.31
2022-08-01T15:54:25.060Z,94182.66
2022-08-01T15:56:54.079Z,94177.53
2022-08-01T15:59:23.075Z,94173.38
2022-08-01T16:01:51.250Z,94187.03
2022-08-01T16:04:19.377Z,94169.25
2022-08-01T16:06:47.003Z,94171.69
2022-08-01T16:09:19.191Z,94169.75
2022-08-01T16:11:50.573Z,94172.19
2022-08-01T16:14:23.477Z,94175.44
2022-08-01T16:16:51.362Z,94171.59
2022-08-01T16:19:19.736Z,94168.59
2022-08-01T16:21:47.982Z,94168.59
2022-08-01T16:24:15.779Z,94168.59
2022-08-01T16:26:43.394Z,94153.00
2022-08-01T16:29:10.984Z,94159.28
2022-08-01T16:31:50.061Z,94152.19
2022-08-01T16:34:27.623Z,94149.97
2022-08-01T16:36:56.537Z,94152.19
2022-08-01T16:39:24.189Z,94160.41
2022-08-01T16:41:55.099Z,94160.69
2022-08-01T16:44:33.317Z,94155.50
2022-08-01T16:47:03.088Z,94152.25
2022-08-01T16:49:34.091Z,94155.00
2022-08-01T16:52:01.833Z,94158.31
2022-08-01T16:54:29.426Z,94154.56
2022-08-01T16:56:57.864Z,94152.72
2022-08-01T16:59:25.825Z,94150.28
2022-08-01T17:02:00.975Z,94156.09
2022-08-01T17:04:31.201Z,94143.94
2022-08-01T17:06:58.854Z,94142.69
2022-08-01T17:09:46.184Z,94144.38
2022-08-01T17:12:22.140Z,94127.25
2022-08-01T17:14:50.536Z,94139.19
2022-08-01T17:17:18.169Z,94144.06
2022-08-01T17:19:47.250Z,94150.03
2022-08-01T17:22:14.858Z,94140.47
2022-08-01T17:24:42.490Z,94144.53
2022-08-01T17:27:13.106Z,94143.69
2022-08-01T17:29:43.986Z,94143.50
2022-08-01T17:32:12.330Z,94150.34
2022-08-01T17:34:40.009Z,94150.13
2022-08-01T17:37:09.419Z,94143.88
2022-08-01T17:39:39.418Z,94147.38
2022-08-01T17:42:08.177Z,94142.69
2022-08-01T17:44:35.847Z,94139.06
2022-08-01T17:47:04.724Z,94153.44
2022-08-01T17:49:53.324Z,94156.69
2022-08-01T17:52:21.771Z,94156.94
2022-08-01T17:54:49.480Z,94157.44
2022-08-01T17:57:17.040Z,94172.13
2022-08-01T17:59:45.034Z,94168.59
2022-08-01T18:02:12.642Z,94176.47
2022-08-01T18:04:44.207Z,94172.63
2022-08-01T18:07:12.422Z,94167.69
2022-08-01T18:09:45.735Z,94170.41
2022-08-01T18:12:14.713Z,94159.19
2022-08-01T18:14:43.991Z,94163.88
2022-08-01T18:17:11.856Z,94167.09
2022-08-01T18:19:39.636Z,94167.41
2022-08-01T18:22:28.826Z,94176.69
2022-08-01T18:24:56.459Z,94178.59
2022-08-01T18:27:24.084Z,94170.72
2022-08-01T18:30:12.167Z,94181.41
2022-08-01T18:32:39.758Z,94187.69
2022-08-01T18:35:14.118Z,94195.56
2022-08-01T18:37:48.030Z,94190.13
2022-08-01T18:40:24.665Z,94206.22
2022-08-01T18:42:54.132Z,94204.81
2022-08-01T18:45:21.969Z,94210.78
2022-08-01T18:47:49.641Z,94210.78
2022-08-01T18:50:17.308Z,94213.22
2022-08-01T18:52:44.929Z,94210.19
2022-08-01T18:55:12.989Z,94211.81
2022-08-01T18:57:44.965Z,94222.47
2022-08-01T19:00:14.926Z,94228.22
2022-08-01T19:02:42.697Z,94230.94
2022-08-01T19:05:10.577Z,94229.31
2022-08-01T19:08:05.164Z,94232.03
2022-08-01T19:10:25.981Z,94233.16
2022-08-01T19:12:54.994Z,94233.16
2022-08-01T19:15:22.742Z,94227.69
2022-08-01T19:17:53.882Z,94228.81
2022-08-01T19:20:21.610Z,94218.16
2022-08-01T19:22:49.229Z,94227.75
2022-08-01T19:25:16.847Z,94237.03
2022-08-01T19:27:45.874Z,94240.88
2022-08-01T19:30:15.095Z,94238.47
2022-08-01T19:32:43.417Z,94233.00
2022-08-01T19:35:12.245Z,94237.34
2022-08-01T19:37:45.657Z,94248.28
2022-08-01T19:40:26.303Z,94254.53
2022-08-01T19:42:56.453Z,94253.44
2022-08-01T19:45:29.095Z,94252.31
2022-08-01T19:47:57.967Z,94250.41
2022-08-01T19:50:26.313Z,94254.53
2022-08-01T19:52:54.821Z,94261.94
2022-08-01T19:55:22.668Z,94261.41
2022-08-01T19:58:16.967Z,94262.22
2022-08-01T20:00:40.031Z,94257.06
2022-08-01T20:03:07.665Z,94253.78
2022-08-01T20:05:36.351Z,94257.94
2022-08-01T20:08:09.945Z,94254.09
2022-08-01T20:10:40.502Z,94260.66
2022-08-01T20:13:09.558Z,94271.59
2022-08-01T20:15:38.774Z,94286.34
2022-08-01T20:18:07.266Z,94287.44
2022-08-01T20:20:37.055Z,94288.53
2022-08-01T20:23:06.479Z,94299.44
2022-08-01T20:25:40.164Z,94307.63
2022-08-01T20:28:09.579Z,94311.72
2022-08-01T20:30:41.934Z,94326.69
2022-08-01T20:33:12.384Z,94336.50
2022-08-01T20:35:52.111Z,94340.88
2022-08-01T20:38:22.972Z,94346.06
2022-08-01T20:40:50.925Z,94329.66
2022-08-01T20:43:19.247Z,94315.19
2022-08-01T20:45:50.016Z,94304.00
2022-08-01T20:48:23.024Z,94326.63
2022-08-01T20:51:08.344Z,94350.09
2022-08-01T20:53:41.748Z,94374.66
2022-08-01T20:56:13.070Z,94389.44
2022-08-01T20:58:47.164Z,94401.47
2022-08-01T21:01:15.727Z,94406.41
2022-08-01T21:03:49.925Z,94399.59
2022-08-01T21:06:18.545Z,94413.53
2022-08-01T21:08:47.332Z,94422.84
2022-08-01T21:11:17.261Z,94423.94
2022-08-01T21:13:48.338Z,94428.56
2022-08-01T21:16:22.400Z,94423.41
2022-08-01T21:21:46.217Z,94422.88
2022-08-01T21:24:16.686Z,94424.50
2022-08-01T21:26:44.334Z,94422.06
2022-08-01T21:29:12.038Z,94418.50
2022-08-01T21:31:41.414Z,94418.50
2022-08-01T21:34:12.128Z,94414.16
2022-08-01T21:36:39.808Z,94404.06
2022-08-01T21:39:07.820Z,94393.44
2022-08-01T21:41:56.372Z,94392.59
2022-08-01T21:44:28.880Z,94391.81
2022-08-01T21:46:57.170Z,94377.31
2022-08-01T21:49:26.226Z,94372.19
2022-08-01T21:51:55.385Z,94367.50
2022-08-01T21:54:25.290Z,94351.44
2022-08-01T21:56:58.038Z,94352.56
2022-08-01T21:59:30.469Z,94346.25
2022-08-01T22:02:04.829Z,94358.00
2022-08-01T22:04:39.920Z,94362.91
2022-08-01T22:07:07.973Z,94374.94
2022-08-01T22:09:35.748Z,94371.41
2022-08-01T22:12:04.114Z,94371.41
2022-08-01T22:14:31.725Z,94366.22
2022-08-01T22:16:59.389Z,94372.53
2022-08-01T22:19:44.434Z,94353.69
2022-08-01T22:22:45.293Z,94364.59
2022-08-01T22:25:03.478Z,94368.44
2022-08-01T22:28:05.726Z,94372.28
2022-08-01T22:30:18.823Z,94367.66
2022-08-01T22:33:15.756Z,94376.91
2022-08-01T22:35:34.832Z,94376.09
2022-08-01T22:38:06.488Z,94378.00
2022-08-01T22:40:34.135Z,94381.56
2022-08-01T22:43:17.798Z,94376.38
2022-08-01T22:45:52.059Z,94380.75
2022-08-01T22:48:26.040Z,94378.31
2022-08-01T22:51:02.824Z,94382.66
2022-08-01T22:53:38.659Z,94371.22
2022-08-01T22:56:10.794Z,94370.13
2022-08-01T22:58:51.831Z,94364.66
2022-08-01T23:01:22.447Z,94357.59
2022-08-01T23:03:55.452Z,94359.50
2022-08-01T23:06:25.576Z,94364.94
2022-08-01T23:08:56.413Z,94368.78
2022-08-01T23:11:24.110Z,94369.59
2022-08-01T23:13:52.028Z,94370.72
2022-08-01T23:16:19.709Z,94367.97
2022-08-01T23:18:50.338Z,94373.44
2022-08-01T23:21:24.943Z,94372.63
2022-08-01T23:23:59.236Z,94367.16
2022-08-01T23:26:27.512Z,94366.88
2022-08-01T23:28:57.781Z,94363.59
2022-08-01T23:32:00.620Z,94360.06
2022-08-01T23:34:20.341Z,94358.97
2022-08-01T23:36:53.243Z,94361.97
2022-08-01T23:39:25.561Z,94362.81
2022-08-01T23:41:57.815Z,94351.88
2022-08-01T23:44:26.317Z,94354.63
2022-08-01T23:46:53.904Z,94353.00
2022-08-01T23:49:23.398Z,94352.16
2022-08-01T23:51:53.230Z,94352.16
2022-08-01T23:54:25.770Z,94345.06
2022-08-01T23:56:53.552Z,94351.38
2022-08-01T23:59:21.223Z,94355.19
